sensor_id;sensor_type;location;lat;lon;timestamp;pressure;altitude;pressure_sealevel;temperature;humidity
71105;BME280;58760;48.716;8.962;2022-10-31T00:01:54;96961.19;;;10.44;95.66
71105;BME280;58760;48.716;8.962;2022-10-31T00:04:19;96973.47;;;10.45;96.07
71105;BME280;58760;48.716;8.962;2022-10-31T00:06:44;96972.97;;;10.41;96.08
71105;BME280;58760;48.716;8.962;2022-10-31T00:09:10;96968.16;;;10.45;96.58
71105;BME280;58760;48.716;8.962;2022-10-31T00:11:36;96972.28;;;10.39;95.82
71105;BME280;58760;48.716;8.962;2022-10-31T00:14:01;96969.66;;;10.39;96.28
71105;BME280;58760;48.716;8.962;2022-10-31T00:16:28;96974.94;;;10.39;96.54
71105;BME280;58760;48.716;8.962;2022-10-31T00:18:56;96975.59;;;10.33;95.76
71105;BME280;58760;48.716;8.962;2022-10-31T00:21:22;96974.94;;;10.39;97.06
71105;BME280;58760;48.716;8.962;2022-10-31T00:23:48;96971.47;;;10.39;97.05
71105;BME280;58760;48.716;8.962;2022-10-31T00:26:14;96971.59;;;10.37;97.05
71105;BME280;58760;48.716;8.962;2022-10-31T00:28:39;96967.97;;;10.38;97.46
71105;BME280;58760;48.716;8.962;2022-10-31T00:31:07;96980.25;;;10.39;97.71
71105;BME280;58760;48.716;8.962;2022-10-31T00:33:37;96967.00;;;10.39;98.04
71105;BME280;58760;48.716;8.962;2022-10-31T00:36:04;96975.59;;;10.33;97.58
71105;BME280;58760;48.716;8.962;2022-10-31T00:38:29;96975.59;;;10.33;97.55
71105;BME280;58760;48.716;8.962;2022-10-31T00:40:55;96965.19;;;10.48;97.72
71105;BME280;58760;48.716;8.962;2022-10-31T00:43:20;96968.69;;;10.48;96.92
71105;BME280;58760;48.716;8.962;2022-10-31T00:45:45;96975.13;;;10.46;96.42
71105;BME280;58760;48.716;8.962;2022-10-31T00:48:11;96975.47;;;10.43;96.21
71105;BME280;58760;48.716;8.962;2022-10-31T00:50:37;96971.13;;;10.42;96.39
71105;BME280;58760;48.716;8.962;2022-10-31T00:53:03;96969.97;;;10.36;96.63
71105;BME280;58760;48.716;8.962;2022-10-31T00:55:28;96977.56;;;10.31;96.81
71105;BME280;58760;48.716;8.962;2022-10-31T00:57:54;96978.06;;;10.27;96.95
71105;BME280;58760;48.716;8.962;2022-10-31T01:00:20;96968.28;;;10.27;97.04
71105;BME280;58760;48.716;8.962;2022-10-31T01:02:45;96968.91;;;10.21;96.64
71105;BME280;58760;48.716;8.962;2022-10-31T01:05:10;96965.59;;;10.19;96.79
71105;BME280;58760;48.716;8.962;2022-10-31T01:07:38;96975.13;;;10.12;96.28
71105;BME280;58760;48.716;8.962;2022-10-31T01:10:05;96966.00;;;10.07;95.98
71105;BME280;58760;48.716;8.962;2022-10-31T01:12:38;96966.47;;;10.02;96.18
71105;BME280;58760;48.716;8.962;2022-10-31T01:15:05;96966.78;;;9.99;96.48
71105;BME280;58760;48.716;8.962;2022-10-31T01:17:31;96968.78;;;9.97;96.58
71105;BME280;58760;48.716;8.962;2022-10-31T01:19:56;96973.25;;;9.96;96.59
71105;BME280;58760;48.716;8.962;2022-10-31T01:22:22;96973.38;;;9.95;96.94
71105;BME280;58760;48.716;8.962;2022-10-31T01:24:47;96971.09;;;10.00;96.89
71105;BME280;58760;48.716;8.962;2022-10-31T01:27:12;96963.63;;;9.95;96.85
71105;BME280;58760;48.716;8.962;2022-10-31T01:29:38;96958.16;;;9.97;97.16
71105;BME280;58760;48.716;8.962;2022-10-31T01:32:03;96960.44;;;9.92;96.85
71105;BME280;58760;48.716;8.962;2022-10-31T01:34:29;96960.75;;;9.89;96.83
71105;BME280;58760;48.716;8.962;2022-10-31T01:36:54;96966.06;;;9.89;97.12
71105;BME280;58760;48.716;8.962;2022-10-31T01:39:19;96966.59;;;9.92;97.57
71105;BME280;58760;48.716;8.962;2022-10-31T01:41:48;96963.09;;;9.92;97.55
71105;BME280;58760;48.716;8.962;2022-10-31T01:46:46;96951.84;;;9.90;97.54
71105;BME280;58760;48.716;8.962;2022-10-31T01:52:08;96953.19;;;9.94;97.19
71105;BME280;58760;48.716;8.962;2022-10-31T01:54:42;96950.22;;;9.97;96.72
71105;BME280;58760;48.716;8.962;2022-10-31T01:57:11;96948.03;;;9.92;96.21
71105;BME280;58760;48.716;8.962;2022-10-31T01:59:42;96953.00;;;9.95;96.09
71105;BME280;58760;48.716;8.962;2022-10-31T02:02:10;96952.16;;;9.87;95.87
71105;BME280;58760;48.716;8.962;2022-10-31T02:04:36;96955.25;;;9.74;95.66
71105;BME280;58760;48.716;8.962;2022-10-31T02:07:06;96950.88;;;9.65;95.89
71105;BME280;58760;48.716;8.962;2022-10-31T02:09:34;96954.66;;;9.63;96.22
71105;BME280;58760;48.716;8.962;2022-10-31T02:12:00;96955.81;;;9.60;96.46
71105;BME280;58760;48.716;8.962;2022-10-31T02:14:27;96956.31;;;9.64;96.17
71105;BME280;58760;48.716;8.962;2022-10-31T02:16:54;96948.34;;;9.56;95.84
71105;BME280;58760;48.716;8.962;2022-10-31T02:22:14;96954.75;;;9.53;96.17
71105;BME280;58760;48.716;8.962;2022-10-31T02:28:08;96949.25;;;9.46;95.25
71105;BME280;58760;48.716;8.962;2022-10-31T02:30:53;96947.63;;;9.45;95.46
71105;BME280;58760;48.716;8.962;2022-10-31T02:33:30;96952.84;;;9.37;95.37
71105;BME280;58760;48.716;8.962;2022-10-31T02:36:11;96956.47;;;9.36;95.96
71105;BME280;58760;48.716;8.962;2022-10-31T02:41:42;96950.47;;;9.52;97.19
71105;BME280;58760;48.716;8.962;2022-10-31T02:44:26;96949.13;;;9.48;97.10
71105;BME280;58760;48.716;8.962;2022-10-31T02:52:18;96949.03;;;9.40;96.98
71105;BME280;58760;48.716;8.962;2022-10-31T02:54:45;96953.38;;;9.41;97.18
71105;BME280;58760;48.716;8.962;2022-10-31T02:57:12;96944.88;;;9.37;97.24
71105;BME280;58760;48.716;8.962;2022-10-31T02:59:40;96953.16;;;9.34;97.25
71105;BME280;58760;48.716;8.962;2022-10-31T03:07:30;96946.50;;;9.30;97.19
71105;BME280;58760;48.716;8.962;2022-10-31T03:14:09;96941.19;;;9.30;97.31
71105;BME280;58760;48.716;8.962;2022-10-31T03:19:09;96932.50;;;9.20;96.78
71105;BME280;58760;48.716;8.962;2022-10-31T03:21:43;96942.97;;;9.22;96.65
71105;BME280;58760;48.716;8.962;2022-10-31T03:24:11;96944.25;;;9.18;96.12
71105;BME280;58760;48.716;8.962;2022-10-31T03:26:42;96935.13;;;9.12;95.74
71105;BME280;58760;48.716;8.962;2022-10-31T03:29:11;96944.19;;;9.10;95.87
71105;BME280;58760;48.716;8.962;2022-10-31T03:34:17;96946.31;;;9.06;96.03
71105;BME280;58760;48.716;8.962;2022-10-31T03:36:44;96931.59;;;9.04;96.44
71105;BME280;58760;48.716;8.962;2022-10-31T03:39:13;96945.31;;;9.07;96.64
71105;BME280;58760;48.716;8.962;2022-10-31T03:41:45;96933.53;;;9.02;96.78
71105;BME280;58760;48.716;8.962;2022-10-31T03:44:14;96935.03;;;9.04;97.06
71105;BME280;58760;48.716;8.962;2022-10-31T03:46:42;96939.34;;;9.05;97.03
71105;BME280;58760;48.716;8.962;2022-10-31T03:49:09;96937.69;;;9.04;97.05
71105;BME280;58760;48.716;8.962;2022-10-31T03:51:49;96935.88;;;9.05;97.13
71105;BME280;58760;48.716;8.962;2022-10-31T03:54:36;96938.69;;;9.03;96.89
71105;BME280;58760;48.716;8.962;2022-10-31T03:57:16;96941.78;;;8.99;96.76
71105;BME280;58760;48.716;8.962;2022-10-31T03:59:51;96936.50;;;8.99;97.05
71105;BME280;58760;48.716;8.962;2022-10-31T04:02:21;96937.31;;;8.99;97.25
71105;BME280;58760;48.716;8.962;2022-10-31T04:04:49;96935.66;;;8.98;97.24
71105;BME280;58760;48.716;8.962;2022-10-31T04:07:15;96933.63;;;8.92;97.00
71105;BME280;58760;48.716;8.962;2022-10-31T04:09:44;96934.75;;;8.89;97.00
71105;BME280;58760;48.716;8.962;2022-10-31T04:12:13;96932.94;;;8.90;97.30
71105;BME280;58760;48.716;8.962;2022-10-31T04:14:41;96926.66;;;8.91;97.20
71105;BME280;58760;48.716;8.962;2022-10-31T04:17:10;96931.28;;;8.89;97.14
71105;BME280;58760;48.716;8.962;2022-10-31T04:19:36;96926.00;;;8.89;96.86
71105;BME280;58760;48.716;8.962;2022-10-31T04:22:02;96920.88;;;8.87;96.81
71105;BME280;58760;48.716;8.962;2022-10-31T04:24:27;96924.31;;;8.88;96.74
71105;BME280;58760;48.716;8.962;2022-10-31T04:26:52;96917.00;;;8.82;96.31
71105;BME280;58760;48.716;8.962;2022-10-31T04:29:18;96916.63;;;8.77;95.99
71105;BME280;58760;48.716;8.962;2022-10-31T04:31:43;96916.63;;;8.77;95.97
71105;BME280;58760;48.716;8.962;2022-10-31T04:34:09;96917.59;;;8.76;95.44
71105;BME280;58760;48.716;8.962;2022-10-31T04:36:34;96912.47;;;8.74;95.38
71105;BME280;58760;48.716;8.962;2022-10-31T04:38:59;96916.94;;;8.74;95.01
71105;BME280;58760;48.716;8.962;2022-10-31T04:41:25;96907.63;;;8.70;95.06
71105;BME280;58760;48.716;8.962;2022-10-31T04:43:50;96909.44;;;8.69;94.90
71105;BME280;58760;48.716;8.962;2022-10-31T04:46:15;96904.31;;;8.68;95.21
71105;BME280;58760;48.716;8.962;2022-10-31T04:48:41;96905.44;;;8.65;95.47
71105;BME280;58760;48.716;8.962;2022-10-31T04:51:06;96902.78;;;8.65;95.51
71105;BME280;58760;48.716;8.962;2022-10-31T04:53:31;96904.63;;;8.65;95.56
71105;BME280;58760;48.716;8.962;2022-10-31T04:56:00;96903.63;;;8.66;95.59
71105;BME280;58760;48.716;8.962;2022-10-31T04:58:26;96900.97;;;8.66;95.92
71105;BME280;58760;48.716;8.962;2022-10-31T05:00:55;96894.84;;;8.65;96.63
71105;BME280;58760;48.716;8.962;2022-10-31T05:03:21;96889.56;;;8.65;96.89
71105;BME280;58760;48.716;8.962;2022-10-31T05:05:46;96892.50;;;8.62;96.96
71105;BME280;58760;48.716;8.962;2022-10-31T05:08:12;96890.16;;;8.59;97.07
71105;BME280;58760;48.716;8.962;2022-10-31T05:10:38;96888.34;;;8.60;97.13
71105;BME280;58760;48.716;8.962;2022-10-31T05:13:04;96889.88;;;8.62;97.31
71105;BME280;58760;48.716;8.962;2022-10-31T05:15:30;96883.06;;;8.60;97.11
71105;BME280;58760;48.716;8.962;2022-10-31T05:17:56;96891.00;;;8.60;96.85
71105;BME280;58760;48.716;8.962;2022-10-31T05:20:25;96894.94;;;8.56;96.46
71105;BME280;58760;48.716;8.962;2022-10-31T05:22:53;96895.09;;;8.54;96.53
71105;BME280;58760;48.716;8.962;2022-10-31T05:25:20;96891.38;;;8.47;95.98
71105;BME280;58760;48.716;8.962;2022-10-31T05:27:47;96898.50;;;8.47;96.12
71105;BME280;58760;48.716;8.962;2022-10-31T05:30:15;96887.91;;;8.47;96.64
71105;BME280;58760;48.716;8.962;2022-10-31T05:32:43;96891.53;;;8.46;96.30
71105;BME280;58760;48.716;8.962;2022-10-31T05:35:11;96899.31;;;8.47;96.53
71105;BME280;58760;48.716;8.962;2022-10-31T05:37:37;96889.59;;;8.48;96.55
71105;BME280;58760;48.716;8.962;2022-10-31T05:40:04;96883.28;;;8.49;96.85
71105;BME280;58760;48.716;8.962;2022-10-31T05:42:30;96884.72;;;8.43;96.47
71105;BME280;58760;48.716;8.962;2022-10-31T05:44:55;96881.03;;;8.36;95.99
71105;BME280;58760;48.716;8.962;2022-10-31T05:47:21;96884.13;;;8.31;96.27
71105;BME280;58760;48.716;8.962;2022-10-31T05:49:46;96888.03;;;8.27;96.21
71105;BME280;58760;48.716;8.962;2022-10-31T05:52:11;96880.22;;;8.26;96.43
71105;BME280;58760;48.716;8.962;2022-10-31T05:54:37;96881.22;;;8.25;96.43
71105;BME280;58760;48.716;8.962;2022-10-31T05:57:02;96887.09;;;8.28;97.10
71105;BME280;58760;48.716;8.962;2022-10-31T05:59:28;96880.34;;;8.34;97.71
71105;BME280;58760;48.716;8.962;2022-10-31T06:01:53;96884.81;;;8.33;97.94
71105;BME280;58760;48.716;8.962;2022-10-31T06:04:18;96874.41;;;8.32;98.19
71105;BME280;58760;48.716;8.962;2022-10-31T06:06:44;96876.88;;;8.33;98.33
71105;BME280;58760;48.716;8.962;2022-10-31T06:09:09;96883.97;;;8.33;98.24
71105;BME280;58760;48.716;8.962;2022-10-31T06:11:34;96870.22;;;8.29;98.03
71105;BME280;58760;48.716;8.962;2022-10-31T06:14:00;96868.56;;;8.28;97.71
71105;BME280;58760;48.716;8.962;2022-10-31T06:16:25;96882.88;;;8.35;98.30
71105;BME280;58760;48.716;8.962;2022-10-31T06:18:51;96878.53;;;8.34;97.71
71105;BME280;58760;48.716;8.962;2022-10-31T06:21:16;96881.84;;;8.36;97.70
71105;BME280;58760;48.716;8.962;2022-10-31T06:23:42;96868.94;;;8.33;97.55
71105;BME280;58760;48.716;8.962;2022-10-31T06:26:07;96870.75;;;8.33;97.52
71105;BME280;58760;48.716;8.962;2022-10-31T06:28:32;96868.63;;;8.36;97.29
71105;BME280;58760;48.716;8.962;2022-10-31T06:30:58;96876.44;;;8.38;97.33
71105;BME280;58760;48.716;8.962;2022-10-31T06:33:23;96873.31;;;8.43;97.47
71105;BME280;58760;48.716;8.962;2022-10-31T06:35:48;96876.66;;;8.45;97.18
71105;BME280;58760;48.716;8.962;2022-10-31T06:38:14;96876.66;;;8.45;97.25
71105;BME280;58760;48.716;8.962;2022-10-31T06:40:40;96869.41;;;8.47;97.34
71105;BME280;58760;48.716;8.962;2022-10-31T06:43:05;96870.38;;;8.46;97.06
71105;BME280;58760;48.716;8.962;2022-10-31T06:45:30;96871.06;;;8.48;97.05
71105;BME280;58760;48.716;8.962;2022-10-31T06:47:56;96868.66;;;8.54;97.42
71105;BME280;58760;48.716;8.962;2022-10-31T06:50:22;96872.34;;;8.61;97.31
71105;BME280;58760;48.716;8.962;2022-10-31T06:52:56;96876.19;;;8.67;96.94
71105;BME280;58760;48.716;8.962;2022-10-31T06:55:22;96875.44;;;8.74;96.98
71105;BME280;58760;48.716;8.962;2022-10-31T06:57:55;96873.16;;;8.79;96.63
71105;BME280;58760;48.716;8.962;2022-10-31T07:00:21;96876.00;;;8.86;96.21
71105;BME280;58760;48.716;8.962;2022-10-31T07:02:55;96875.72;;;8.89;96.08
71105;BME280;58760;48.716;8.962;2022-10-31T07:05:21;96875.41;;;8.92;96.03
71105;BME280;58760;48.716;8.962;2022-10-31T07:07:46;96881.38;;;8.94;95.98
71105;BME280;58760;48.716;8.962;2022-10-31T07:10:12;96878.56;;;8.96;95.66
71105;BME280;58760;48.716;8.962;2022-10-31T07:12:37;96876.66;;;9.06;95.86
71105;BME280;58760;48.716;8.962;2022-10-31T07:15:03;96886.81;;;9.10;95.68
71105;BME280;58760;48.716;8.962;2022-10-31T07:17:29;96880.50;;;9.11;95.23
71105;BME280;58760;48.716;8.962;2022-10-31T07:19:54;96883.84;;;9.13;95.12
71105;BME280;58760;48.716;8.962;2022-10-31T07:22:19;96882.69;;;9.16;94.50
71105;BME280;58760;48.716;8.962;2022-10-31T07:24:45;96883.22;;;9.19;94.28
71105;BME280;58760;48.716;8.962;2022-10-31T07:27:10;96885.69;;;9.21;93.88
71105;BME280;58760;48.716;8.962;2022-10-31T07:29:35;96885.06;;;9.27;94.18
71105;BME280;58760;48.716;8.962;2022-10-31T07:32:01;96890.09;;;9.38;94.23
71105;BME280;58760;48.716;8.962;2022-10-31T07:34:26;96877.59;;;9.48;94.24
71105;BME280;58760;48.716;8.962;2022-10-31T07:36:52;96887.69;;;9.53;93.89
71105;BME280;58760;48.716;8.962;2022-10-31T07:39:17;96885.56;;;9.56;93.49
71105;BME280;58760;48.716;8.962;2022-10-31T07:41:42;96888.06;;;9.58;93.07
71105;BME280;58760;48.716;8.962;2022-10-31T07:44:08;96884.31;;;9.68;93.23
71105;BME280;58760;48.716;8.962;2022-10-31T07:46:33;96874.25;;;9.72;93.18
71105;BME280;58760;48.716;8.962;2022-10-31T07:48:58;96882.06;;;9.81;92.93
71105;BME280;58760;48.716;8.962;2022-10-31T07:51:24;96874.44;;;9.86;92.49
71105;BME280;58760;48.716;8.962;2022-10-31T07:53:49;96879.97;;;10.01;92.47
71105;BME280;58760;48.716;8.962;2022-10-31T07:56:14;96882.66;;;10.09;92.68
71105;BME280;58760;48.716;8.962;2022-10-31T07:58:40;96872.75;;;10.19;92.46
71105;BME280;58760;48.716;8.962;2022-10-31T08:01:05;96873.78;;;10.34;91.85
71105;BME280;58760;48.716;8.962;2022-10-31T08:03:30;96875.78;;;10.40;91.01
71105;BME280;58760;48.716;8.962;2022-10-31T08:05:56;96876.78;;;10.47;89.35
71105;BME280;58760;48.716;8.962;2022-10-31T08:08:21;96878.63;;;10.55;88.58
71105;BME280;58760;48.716;8.962;2022-10-31T08:10:47;96871.84;;;10.61;88.90
71105;BME280;58760;48.716;8.962;2022-10-31T08:13:13;96871.34;;;10.73;88.89
71105;BME280;58760;48.716;8.962;2022-10-31T08:15:39;96872.50;;;10.87;88.43
71105;BME280;58760;48.716;8.962;2022-10-31T08:18:11;96873.19;;;10.97;87.70
71105;BME280;58760;48.716;8.962;2022-10-31T08:20:37;96867.69;;;11.07;87.72
71105;BME280;58760;48.716;8.962;2022-10-31T08:23:03;96852.75;;;11.14;87.27
71105;BME280;58760;48.716;8.962;2022-10-31T08:25:31;96855.72;;;11.19;87.44
71105;BME280;58760;48.716;8.962;2022-10-31T08:27:56;96852.06;;;11.28;87.80
71105;BME280;58760;48.716;8.962;2022-10-31T08:30:24;96856.50;;;11.35;88.07
71105;BME280;58760;48.716;8.962;2022-10-31T08:33:09;96839.03;;;11.49;88.65
71105;BME280;58760;48.716;8.962;2022-10-31T08:35:35;96849.63;;;11.73;88.13
71105;BME280;58760;48.716;8.962;2022-10-31T08:38:01;96853.00;;;11.98;87.91
71105;BME280;58760;48.716;8.962;2022-10-31T08:40:28;96843.41;;;11.89;87.86
71105;BME280;58760;48.716;8.962;2022-10-31T08:43:01;96850.13;;;11.77;87.75
71105;BME280;58760;48.716;8.962;2022-10-31T08:45:28;96853.72;;;11.92;87.18
71105;BME280;58760;48.716;8.962;2022-10-31T08:48:01;96848.78;;;12.12;86.34
71105;BME280;58760;48.716;8.962;2022-10-31T08:50:28;96845.94;;;12.13;85.29
71105;BME280;58760;48.716;8.962;2022-10-31T08:52:59;96852.84;;;12.30;84.35
71105;BME280;58760;48.716;8.962;2022-10-31T08:55:25;96849.28;;;12.15;85.68
71105;BME280;58760;48.716;8.962;2022-10-31T08:57:55;96847.97;;;12.11;87.59
71105;BME280;58760;48.716;8.962;2022-10-31T09:00:20;96847.81;;;12.13;87.55
71105;BME280;58760;48.716;8.962;2022-10-31T09:02:46;96835.06;;;12.23;87.20
71105;BME280;58760;48.716;8.962;2022-10-31T09:05:11;96833.84;;;12.33;87.92
71105;BME280;58760;48.716;8.962;2022-10-31T09:07:37;96827.44;;;12.50;87.96
71105;BME280;58760;48.716;8.962;2022-10-31T09:10:02;96833.72;;;12.57;88.46
71105;BME280;58760;48.716;8.962;2022-10-31T09:12:27;96832.78;;;12.65;88.20
71105;BME280;58760;48.716;8.962;2022-10-31T09:14:53;96828.63;;;12.71;88.48
71105;BME280;58760;48.716;8.962;2022-10-31T09:17:18;96832.22;;;12.78;88.21
71105;BME280;58760;48.716;8.962;2022-10-31T09:19:43;96828.28;;;12.88;88.27
71105;BME280;58760;48.716;8.962;2022-10-31T09:22:09;96829.59;;;13.07;86.59
71105;BME280;58760;48.716;8.962;2022-10-31T09:24:34;96828.59;;;13.08;85.89
71105;BME280;58760;48.716;8.962;2022-10-31T09:27:00;96827.63;;;13.09;86.23
71105;BME280;58760;48.716;8.962;2022-10-31T09:29:25;96827.63;;;13.24;85.43
71105;BME280;58760;48.716;8.962;2022-10-31T09:31:50;96830.03;;;13.33;85.38
71105;BME280;58760;48.716;8.962;2022-10-31T09:34:15;96821.97;;;13.56;84.72
71105;BME280;58760;48.716;8.962;2022-10-31T09:36:41;96820.69;;;13.67;84.81
71105;BME280;58760;48.716;8.962;2022-10-31T09:39:08;96818.31;;;13.72;83.23
71105;BME280;58760;48.716;8.962;2022-10-31T09:46:55;96806.38;;;14.03;79.98
71105;BME280;58760;48.716;8.962;2022-10-31T09:54:46;96821.41;;;13.90;79.50
71105;BME280;58760;48.716;8.962;2022-10-31T09:57:22;96814.56;;;14.02;79.04
71105;BME280;58760;48.716;8.962;2022-10-31T09:59:49;96813.00;;;14.07;80.04
71105;BME280;58760;48.716;8.962;2022-10-31T10:02:29;96818.06;;;14.02;79.61
71105;BME280;58760;48.716;8.962;2022-10-31T10:05:37;96804.28;;;14.35;82.09
71105;BME280;58760;48.716;8.962;2022-10-31T10:11:08;96794.34;;;14.43;78.64
71105;BME280;58760;48.716;8.962;2022-10-31T10:13:58;96797.47;;;14.53;77.31
71105;BME280;58760;48.716;8.962;2022-10-31T10:25:14;96790.34;;;15.65;78.38
71105;BME280;58760;48.716;8.962;2022-10-31T10:30:28;96777.09;;;15.98;74.93
71105;BME280;58760;48.716;8.962;2022-10-31T10:33:04;96784.19;;;16.18;75.43
71105;BME280;58760;48.716;8.962;2022-10-31T10:35:33;96783.00;;;16.34;75.82
71105;BME280;58760;48.716;8.962;2022-10-31T10:40:37;96780.06;;;16.29;74.20
71105;BME280;58760;48.716;8.962;2022-10-31T10:43:23;96782.00;;;16.42;74.25
71105;BME280;58760;48.716;8.962;2022-10-31T10:51:15;96767.44;;;16.77;71.61
71105;BME280;58760;48.716;8.962;2022-10-31T10:54:08;96765.34;;;16.99;71.89
71105;BME280;58760;48.716;8.962;2022-10-31T10:56:49;96754.63;;;17.05;71.72
71105;BME280;58760;48.716;8.962;2022-10-31T10:59:19;96749.25;;;17.25;71.37
71105;BME280;58760;48.716;8.962;2022-10-31T11:01:48;96750.44;;;17.42;71.10
71105;BME280;58760;48.716;8.962;2022-10-31T11:04:25;96742.78;;;17.65;70.32
71105;BME280;58760;48.716;8.962;2022-10-31T11:07:06;96736.72;;;17.76;67.57
71105;BME280;58760;48.716;8.962;2022-10-31T11:09:33;96736.28;;;17.86;67.47
71105;BME280;58760;48.716;8.962;2022-10-31T11:11:59;96729.94;;;18.12;66.84
71105;BME280;58760;48.716;8.962;2022-10-31T11:14:26;96726.94;;;18.33;67.39
71105;BME280;58760;48.716;8.962;2022-10-31T11:17:06;96725.81;;;18.47;67.53
71105;BME280;58760;48.716;8.962;2022-10-31T11:19:33;96723.16;;;18.41;66.03
71105;BME280;58760;48.716;8.962;2022-10-31T11:22:12;96721.50;;;18.46;65.75
71105;BME280;58760;48.716;8.962;2022-10-31T11:24:40;96718.06;;;18.64;66.02
71105;BME280;58760;48.716;8.962;2022-10-31T11:27:25;96707.22;;;18.77;65.24
71105;BME280;58760;48.716;8.962;2022-10-31T11:29:51;96710.88;;;18.83;66.08
71105;BME280;58760;48.716;8.962;2022-10-31T11:32:22;96699.41;;;18.94;65.85
71105;BME280;58760;48.716;8.962;2022-10-31T11:34:52;96697.09;;;18.97;64.05
71105;BME280;58760;48.716;8.962;2022-10-31T11:37:25;96692.81;;;19.14;62.98
71105;BME280;58760;48.716;8.962;2022-10-31T11:40:19;96706.66;;;19.36;62.22
71105;BME280;58760;48.716;8.962;2022-10-31T11:42:45;96704.66;;;19.07;64.03
71105;BME280;58760;48.716;8.962;2022-10-31T11:45:33;96696.75;;;19.12;64.02
71105;BME280;58760;48.716;8.962;2022-10-31T11:48:01;96697.75;;;18.93;65.50
71105;BME280;58760;48.716;8.962;2022-10-31T11:50:28;96693.13;;;19.00;66.04
71105;BME280;58760;48.716;8.962;2022-10-31T11:52:54;96691.75;;;19.15;65.04
71105;BME280;58760;48.716;8.962;2022-10-31T11:55:31;96687.03;;;19.11;64.58
71105;BME280;58760;48.716;8.962;2022-10-31T11:57:57;96685.19;;;19.11;63.88
71105;BME280;58760;48.716;8.962;2022-10-31T12:00:28;96680.09;;;19.40;62.84
71105;BME280;58760;48.716;8.962;2022-10-31T12:05:54;96674.81;;;19.69;61.47
71105;BME280;58760;48.716;8.962;2022-10-31T12:08:20;96679.88;;;19.96;61.22
71105;BME280;58760;48.716;8.962;2022-10-31T12:16:11;96661.84;;;19.96;58.71
71105;BME280;58760;48.716;8.962;2022-10-31T12:18:53;96650.81;;;19.98;57.60
71105;BME280;58760;48.716;8.962;2022-10-31T12:21:27;96649.91;;;19.56;61.26
71105;BME280;58760;48.716;8.962;2022-10-31T12:24:20;96646.00;;;19.15;62.25
71105;BME280;58760;48.716;8.962;2022-10-31T12:27:19;96642.94;;;18.94;62.49
71105;BME280;58760;48.716;8.962;2022-10-31T12:33:08;96637.88;;;19.04;62.80
71105;BME280;58760;48.716;8.962;2022-10-31T12:38:52;96626.97;;;18.74;63.38
71105;BME280;58760;48.716;8.962;2022-10-31T12:47:12;96618.47;;;18.59;63.47
71105;BME280;58760;48.716;8.962;2022-10-31T12:55:44;96592.03;;;18.49;64.32
71105;BME280;58760;48.716;8.962;2022-10-31T12:58:21;96581.84;;;18.33;65.66
71105;BME280;58760;48.716;8.962;2022-10-31T13:01:00;96582.00;;;18.38;65.97
71105;BME280;58760;48.716;8.962;2022-10-31T13:03:33;96582.69;;;18.34;68.32
71105;BME280;58760;48.716;8.962;2022-10-31T13:06:09;96586.06;;;18.22;68.16
71105;BME280;58760;48.716;8.962;2022-10-31T13:08:49;96577.25;;;18.40;65.75
71105;BME280;58760;48.716;8.962;2022-10-31T13:11:21;96576.13;;;18.72;65.24
71105;BME280;58760;48.716;8.962;2022-10-31T13:14:02;96575.31;;;18.90;65.36
71105;BME280;58760;48.716;8.962;2022-10-31T13:16:31;96574.25;;;19.09;63.91
71105;BME280;58760;48.716;8.962;2022-10-31T13:19:28;96580.03;;;19.91;62.89
71105;BME280;58760;48.716;8.962;2022-10-31T13:22:02;96582.94;;;21.63;58.64
71105;BME280;58760;48.716;8.962;2022-10-31T13:27:18;96565.03;;;24.84;49.35
71105;BME280;58760;48.716;8.962;2022-10-31T13:32:22;96567.50;;;24.22;50.78
71105;BME280;58760;48.716;8.962;2022-10-31T13:34:52;96558.84;;;24.57;47.94
71105;BME280;58760;48.716;8.962;2022-10-31T13:37:46;96553.13;;;23.95;48.83
71105;BME280;58760;48.716;8.962;2022-10-31T13:40:45;96529.56;;;23.95;50.49
71105;BME280;58760;48.716;8.962;2022-10-31T13:43:23;96528.75;;;23.25;52.09
71105;BME280;58760;48.716;8.962;2022-10-31T13:45:55;96536.56;;;22.28;53.80
71105;BME280;58760;48.716;8.962;2022-10-31T13:48:37;96545.66;;;22.22;53.92
71105;BME280;58760;48.716;8.962;2022-10-31T13:51:09;96538.56;;;21.87;55.91
71105;BME280;58760;48.716;8.962;2022-10-31T13:54:06;96541.66;;;21.51;58.55
71105;BME280;58760;48.716;8.962;2022-10-31T13:56:48;96534.50;;;21.05;59.74
71105;BME280;58760;48.716;8.962;2022-10-31T13:59:17;96536.31;;;20.76;63.27
71105;BME280;58760;48.716;8.962;2022-10-31T14:01:50;96538.22;;;20.53;62.44
71105;BME280;58760;48.716;8.962;2022-10-31T14:04:20;96536.56;;;20.63;62.00
71105;BME280;58760;48.716;8.962;2022-10-31T14:10:01;96525.97;;;20.85;60.73
71105;BME280;58760;48.716;8.962;2022-10-31T14:15:05;96516.53;;;22.62;54.08
71105;BME280;58760;48.716;8.962;2022-10-31T14:17:57;96516.81;;;21.94;56.13
71105;BME280;58760;48.716;8.962;2022-10-31T14:20:25;96510.47;;;21.44;58.16
71105;BME280;58760;48.716;8.962;2022-10-31T14:22:56;96518.94;;;20.96;61.18
71105;BME280;58760;48.716;8.962;2022-10-31T14:27:49;96520.00;;;21.63;56.37
71105;BME280;58760;48.716;8.962;2022-10-31T14:30:22;96510.91;;;21.52;56.24
71105;BME280;58760;48.716;8.962;2022-10-31T14:32:54;96504.94;;;21.67;55.34
71105;BME280;58760;48.716;8.962;2022-10-31T14:35:24;96508.03;;;21.42;57.72
71105;BME280;58760;48.716;8.962;2022-10-31T14:38:02;96509.88;;;21.02;59.26
71105;BME280;58760;48.716;8.962;2022-10-31T14:40:33;96510.66;;;20.62;60.19
71105;BME280;58760;48.716;8.962;2022-10-31T14:43:16;96511.50;;;20.28;61.46
71105;BME280;58760;48.716;8.962;2022-10-31T14:51:08;96513.16;;;19.88;65.84
71105;BME280;58760;48.716;8.962;2022-10-31T14:53:55;96510.03;;;19.61;66.97
71105;BME280;58760;48.716;8.962;2022-10-31T14:56:26;96513.03;;;19.41;66.14
71105;BME280;58760;48.716;8.962;2022-10-31T14:58:55;96513.72;;;19.18;65.57
71105;BME280;58760;48.716;8.962;2022-10-31T15:01:26;96513.69;;;18.89;68.58
71105;BME280;58760;48.716;8.962;2022-10-31T15:04:39;96517.66;;;18.68;70.63
71105;BME280;58760;48.716;8.962;2022-10-31T15:06:42;96508.63;;;18.38;73.04
71105;BME280;58760;48.716;8.962;2022-10-31T15:09:24;96512.25;;;18.07;74.84
71105;BME280;58760;48.716;8.962;2022-10-31T15:11:50;96513.19;;;17.94;74.66